createdAt,value
2022-10-05T00:00:53.181Z,5.57
2022-10-05T00:03:22.485Z,6.37
2022-10-05T00:05:50.003Z,5.33
2022-10-05T00:08:24.466Z,5.73
2022-10-05T00:10:52.137Z,6.80
2022-10-05T00:13:26.260Z,7.00
2022-10-05T00:16:05.320Z,7.10
2022-10-05T00:18:32.978Z,6.47
2022-10-05T00:21:00.277Z,6.73
2022-10-05T00:23:31.199Z,6.10
2022-10-05T00:26:24.737Z,7.00
2022-10-05T00:28:52.545Z,6.40
2022-10-05T00:31:23.277Z,6.30
2022-10-05T00:33:50.533Z,7.23
2022-10-05T00:36:18.533Z,6.40
2022-10-05T00:38:45.599Z,7.47
2022-10-05T00:41:45.845Z,6.10
2022-10-05T00:44:43.550Z,5.90
2022-10-05T00:47:59.026Z,6.37
2022-10-05T00:50:59.441Z,6.17
2022-10-05T00:54:06.683Z,5.87
2022-10-05T00:57:03.196Z,4.57
2022-10-05T00:59:36.946Z,6.03
2022-10-05T01:02:15.073Z,6.17
2022-10-05T01:05:22.163Z,5.80
2022-10-05T01:08:21.611Z,6.10
2022-10-05T01:11:00.464Z,6.10
2022-10-05T01:14:06.717Z,5.77
2022-10-05T01:17:26.214Z,5.70
2022-10-05T01:20:14.290Z,5.20
2022-10-05T01:23:08.835Z,6.50
2022-10-05T01:25:49.187Z,5.90
2022-10-05T01:28:26.638Z,6.13
2022-10-05T01:31:26.390Z,6.30
2022-10-05T01:34:31.543Z,6.00
2022-10-05T01:37:22.640Z,6.83
2022-10-05T01:40:11.178Z,5.40
2022-10-05T01:43:05.800Z,5.97
2022-10-05T01:46:02.148Z,5.53
2022-10-05T01:49:12.513Z,6.43
2022-10-05T01:52:02.277Z,6.07
2022-10-05T01:55:06.674Z,5.97
2022-10-05T01:58:15.798Z,6.07
2022-10-05T02:01:18.355Z,5.30
2022-10-05T02:03:57.117Z,5.10
2022-10-05T02:06:34.719Z,5.63
2022-10-05T02:09:09.205Z,6.03
2022-10-05T02:11:39.615Z,5.10
2022-10-05T02:14:18.441Z,5.60
2022-10-05T02:16:51.599Z,5.90
2022-10-05T02:19:22.371Z,4.83
2022-10-05T02:21:58.629Z,5.83
2022-10-05T02:24:33.544Z,4.97
2022-10-05T02:27:01.423Z,5.43
2022-10-05T02:29:32.083Z,5.60
2022-10-05T02:32:14.234Z,5.50
2022-10-05T02:34:43.243Z,4.90
2022-10-05T02:37:42.859Z,4.43
2022-10-05T02:40:18.516Z,4.90
2022-10-05T02:43:13.043Z,5.20
2022-10-05T02:46:19.284Z,4.93
2022-10-05T02:49:18.659Z,4.33
2022-10-05T02:52:13.629Z,5.67
2022-10-05T02:55:14.201Z,5.23
2022-10-05T02:57:49.961Z,5.23
2022-10-05T03:00:21.891Z,4.87
2022-10-05T03:03:05.347Z,5.07
2022-10-05T03:05:48.549Z,4.60
2022-10-05T03:08:34.160Z,4.67
2022-10-05T03:11:25.513Z,5.17
2022-10-05T03:14:14.243Z,4.30
2022-10-05T03:17:11.898Z,4.57
2022-10-05T03:20:10.130Z,5.10
2022-10-05T03:22:48.299Z,5.07
2022-10-05T03:25:56.614Z,5.20
2022-10-05T03:28:44.972Z,4.23
2022-10-05T03:31:35.554Z,4.60
2022-10-05T03:34:32.344Z,5.10
2022-10-05T03:37:28.210Z,5.73
2022-10-05T03:40:06.030Z,5.67
2022-10-05T03:43:09.283Z,5.20
2022-10-05T03:46:06.647Z,4.40
2022-10-05T03:48:48.207Z,4.47
2022-10-05T03:51:32.335Z,5.83
2022-10-05T03:54:28.819Z,5.20
2022-10-05T03:57:19.532Z,5.53
2022-10-05T04:00:27.834Z,4.80
2022-10-05T04:03:19.281Z,5.27
2022-10-05T04:05:56.821Z,5.80
2022-10-05T04:08:38.315Z,6.00
2022-10-05T04:11:31.896Z,5.87
2022-10-05T04:14:07.045Z,4.73
2022-10-05T04:16:45.957Z,4.93
2022-10-05T04:19:34.748Z,5.77
2022-10-05T04:22:36.868Z,5.43
2022-10-05T04:25:28.525Z,6.30
2022-10-05T04:28:31.218Z,6.40
2022-10-05T04:31:02.882Z,7.10
2022-10-05T04:33:29.846Z,7.63
2022-10-05T04:36:19.433Z,8.07
2022-10-05T04:39:07.995Z,7.60
2022-10-05T04:41:43.690Z,7.50
2022-10-05T04:44:46.545Z,6.50
2022-10-05T04:47:31.403Z,7.83
2022-10-05T04:50:37.636Z,8.80
2022-10-05T04:53:32.034Z,9.40
2022-10-05T04:56:30.037Z,12.17
2022-10-05T04:59:04.014Z,10.87
2022-10-05T05:02:06.689Z,9.60
2022-10-05T05:05:12.737Z,10.60
2022-10-05T05:08:29.234Z,8.40
2022-10-05T05:11:19.029Z,10.40
2022-10-05T05:14:02.798Z,10.37
2022-10-05T05:16:45.028Z,8.90
2022-10-05T05:19:37.521Z,8.87
2022-10-05T05:22:07.976Z,9.07
2022-10-05T05:25:04.440Z,9.80
2022-10-05T05:27:54.829Z,8.00
2022-10-05T05:30:42.795Z,9.43
2022-10-05T05:33:50.374Z,9.20
2022-10-05T05:36:39.707Z,10.50
2022-10-05T05:39:24.679Z,9.80
2022-10-05T05:42:37.020Z,9.50
2022-10-05T05:45:19.766Z,9.13
2022-10-05T05:47:54.302Z,9.53
2022-10-05T05:50:51.184Z,9.83
2022-10-05T05:53:25.976Z,8.90
2022-10-05T05:56:00.855Z,8.00
2022-10-05T05:58:52.128Z,7.87
2022-10-05T06:01:44.528Z,8.47
2022-10-05T06:04:31.540Z,7.27
2022-10-05T06:07:01.822Z,7.83
2022-10-05T06:09:46.296Z,8.27
2022-10-05T06:12:23.083Z,7.47
2022-10-05T06:14:59.594Z,7.70
2022-10-05T06:17:39.016Z,7.93
2022-10-05T06:20:33.633Z,6.80
2022-10-05T06:23:05.932Z,8.23
2022-10-05T06:25:51.992Z,7.97
2022-10-05T06:28:20.156Z,8.03
2022-10-05T06:31:21.940Z,8.60
2022-10-05T06:34:25.280Z,7.90
2022-10-05T06:37:00.716Z,7.10
2022-10-05T06:39:48.095Z,7.73
2022-10-05T06:42:46.798Z,6.37
2022-10-05T06:45:32.267Z,6.10
2022-10-05T06:48:05.347Z,6.50
2022-10-05T06:50:43.546Z,5.60
2022-10-05T06:53:30.135Z,6.07
2022-10-05T06:56:27.916Z,6.23
2022-10-05T06:59:06.681Z,6.77
2022-10-05T07:02:01.447Z,5.60
2022-10-05T07:04:47.831Z,6.03
2022-10-05T07:07:23.885Z,7.43
2022-10-05T07:10:06.711Z,5.63
2022-10-05T07:12:50.146Z,5.10
2022-10-05T07:15:52.704Z,5.93
2022-10-05T07:18:37.938Z,5.50
2022-10-05T07:21:15.173Z,5.43
2022-10-05T07:24:04.747Z,6.97
2022-10-05T07:26:41.397Z,5.67
2022-10-05T07:29:29.539Z,9.57
2022-10-05T07:32:14.575Z,7.20
2022-10-05T07:35:29.785Z,6.63
2022-10-05T07:38:01.075Z,6.00
2022-10-05T07:41:00.435Z,5.70
2022-10-05T07:44:12.511Z,5.37
2022-10-05T07:46:51.457Z,5.70
2022-10-05T07:49:51.058Z,6.30
2022-10-05T07:52:33.782Z,5.80
2022-10-05T07:55:25.779Z,6.57
2022-10-05T07:58:18.643Z,6.83
2022-10-05T08:01:02.780Z,6.70
2022-10-05T08:03:46.614Z,7.53
2022-10-05T08:06:38.966Z,6.17
2022-10-05T08:09:29.014Z,5.93
2022-10-05T08:12:07.915Z,6.60
2022-10-05T08:14:52.857Z,6.47
2022-10-05T08:18:02.158Z,6.13
2022-10-05T08:20:47.899Z,42.27
2022-10-05T08:23:20.571Z,23.40
2022-10-05T08:25:53.267Z,7.80
2022-10-05T08:28:37.100Z,5.80
2022-10-05T08:31:41.804Z,4.97
2022-10-05T08:34:46.642Z,3.33
2022-10-05T08:37:37.710Z,4.10
2022-10-05T08:40:43.613Z,4.80
2022-10-05T08:43:38.150Z,5.17
2022-10-05T08:46:55.472Z,4.00
2022-10-05T08:50:06.077Z,4.73
2022-10-05T08:52:54.771Z,4.10
2022-10-05T08:56:05.905Z,4.10
2022-10-05T08:58:52.152Z,4.60
2022-10-05T09:01:55.956Z,4.90
2022-10-05T09:04:43.276Z,4.80
2022-10-05T09:07:49.482Z,4.10
2022-10-05T09:10:36.569Z,4.40
2022-10-05T09:13:09.118Z,5.10
2022-10-05T09:16:07.426Z,3.90
2022-10-05T09:19:22.718Z,4.47
2022-10-05T09:22:25.013Z,4.63
2022-10-05T09:25:04.364Z,5.20
2022-10-05T09:27:37.219Z,4.93
2022-10-05T09:30:31.922Z,4.93
2022-10-05T09:33:26.992Z,4.50
2022-10-05T09:36:38.891Z,4.03
2022-10-05T09:39:43.199Z,4.40
2022-10-05T09:42:49.307Z,4.67
2022-10-05T09:45:57.620Z,4.20
2022-10-05T09:49:01.234Z,4.20
2022-10-05T09:51:51.281Z,4.37
2022-10-05T09:54:47.707Z,3.70
2022-10-05T09:57:29.492Z,4.17
2022-10-05T10:00:15.121Z,4.40
2022-10-05T10:03:14.209Z,4.50
2022-10-05T10:06:18.184Z,4.13
2022-10-05T10:09:22.122Z,4.07
2022-10-05T10:12:13.077Z,5.00
2022-10-05T10:15:19.058Z,4.87
2022-10-05T10:18:36.223Z,4.23
2022-10-05T10:21:39.571Z,4.53
2022-10-05T10:24:22.447Z,5.17
2022-10-05T10:27:21.512Z,5.30
2022-10-05T10:30:39.451Z,4.57
2022-10-05T10:33:26.342Z,5.10
2022-10-05T10:36:19.862Z,5.43
2022-10-05T10:38:59.884Z,5.67
2022-10-05T10:41:38.626Z,5.30
2022-10-05T10:45:03.222Z,4.93
2022-10-05T10:47:32.701Z,6.77
2022-10-05T10:50:28.341Z,5.63
2022-10-05T10:53:32.697Z,5.70
2022-10-05T10:56:22.910Z,5.63
2022-10-05T10:59:45.988Z,5.63
2022-10-05T11:03:02.479Z,6.30
2022-10-05T11:05:46.349Z,5.70
2022-10-05T11:08:57.163Z,5.77
2022-10-05T11:12:07.325Z,5.80
2022-10-05T11:15:16.778Z,6.17
2022-10-05T11:17:55.508Z,5.80
2022-10-05T11:21:18.073Z,5.60
2022-10-05T11:23:47.893Z,4.90
2022-10-05T11:26:41.674Z,5.60
2022-10-05T11:29:51.385Z,5.17
2022-10-05T11:32:49.056Z,4.80
2022-10-05T11:36:03.639Z,5.20
2022-10-05T11:38:58.316Z,6.40
2022-10-05T11:41:42.894Z,51.70
2022-10-05T11:44:30.871Z,17.10
2022-10-05T11:48:03.799Z,6.37
2022-10-05T11:51:01.871Z,6.20
2022-10-05T11:53:58.053Z,5.23
2022-10-05T11:56:36.699Z,4.00
2022-10-05T11:59:46.385Z,5.00
2022-10-05T12:03:04.837Z,5.20
2022-10-05T12:05:58.370Z,4.80
2022-10-05T12:08:54.402Z,5.23
2022-10-05T12:12:01.165Z,4.90
2022-10-05T12:14:33.483Z,4.43
2022-10-05T12:17:11.015Z,5.60
2022-10-05T12:19:48.693Z,5.13
2022-10-05T12:22:23.237Z,5.10
2022-10-05T12:25:17.903Z,5.27
2022-10-05T12:27:49.422Z,4.80
2022-10-05T12:30:53.726Z,4.67
2022-10-05T12:33:34.090Z,4.73
2022-10-05T12:37:03.043Z,5.30
2022-10-05T12:39:58.253Z,5.00
2022-10-05T12:42:42.069Z,5.47
2022-10-05T12:45:21.178Z,4.90
2022-10-05T12:48:00.524Z,4.80
2022-10-05T12:50:36.830Z,4.53
2022-10-05T12:53:22.428Z,5.00
2022-10-05T12:56:10.374Z,4.00
2022-10-05T12:59:00.391Z,4.03
2022-10-05T13:02:13.006Z,4.37
2022-10-05T13:05:00.035Z,4.73
2022-10-05T13:07:54.010Z,4.80
2022-10-05T13:10:38.870Z,3.97
2022-10-05T13:13:35.112Z,4.50
2022-10-05T13:16:52.514Z,3.67
2022-10-05T13:19:40.031Z,4.60
2022-10-05T13:22:27.581Z,4.80
2022-10-05T13:25:20.571Z,5.07
2022-10-05T13:27:58.419Z,4.40
2022-10-05T13:30:25.518Z,5.10
2022-10-05T13:33:07.880Z,7.73
2022-10-05T13:35:55.322Z,5.10
2022-10-05T13:38:42.627Z,5.50
2022-10-05T13:41:40.149Z,3.70
2022-10-05T13:44:52.563Z,4.47
2022-10-05T13:47:56.175Z,4.20
2022-10-05T13:50:32.759Z,4.43
2022-10-05T13:53:09.442Z,4.23
2022-10-05T13:56:01.537Z,4.70
2022-10-05T13:59:12.171Z,3.83
2022-10-05T14:01:47.507Z,4.70
2022-10-05T14:04:53.661Z,4.13
2022-10-05T14:08:12.119Z,4.83
2022-10-05T14:10:47.587Z,3.90
2022-10-05T14:13:46.635Z,4.07
2022-10-05T14:16:13.649Z,4.30
2022-10-05T14:19:09.090Z,4.40
2022-10-05T14:22:22.943Z,4.67
2022-10-05T14:25:13.738Z,5.10
2022-10-05T14:28:12.920Z,4.43
2022-10-05T14:30:40.460Z,4.57
2022-10-05T14:33:16.310Z,5.30
2022-10-05T14:35:56.071Z,3.90
2022-10-05T14:38:51.037Z,4.73
2022-10-05T14:41:21.739Z,6.97
2022-10-05T14:44:02.136Z,7.77
2022-10-05T14:46:33.872Z,5.50
2022-10-05T14:49:27.511Z,6.10
2022-10-05T14:51:56.219Z,5.77
2022-10-05T14:54:52.382Z,6.10
2022-10-05T14:57:34.113Z,5.30
2022-10-05T15:00:18.650Z,5.80
2022-10-05T15:03:27.279Z,4.90
2022-10-05T15:05:59.170Z,5.50
2022-10-05T15:08:57.050Z,6.43
2022-10-05T15:11:57.425Z,6.17
2022-10-05T15:14:41.034Z,6.53
2022-10-05T15:17:27.037Z,6.27
2022-10-05T15:20:20.753Z,6.80
2022-10-05T15:23:29.858Z,6.70
2022-10-05T15:26:07.754Z,6.37
2022-10-05T15:28:48.434Z,6.73
2022-10-05T15:32:09.709Z,6.73
2022-10-05T15:34:51.221Z,7.20
2022-10-05T15:37:26.311Z,7.17
2022-10-05T15:40:00.018Z,6.70
2022-10-05T15:42:38.560Z,7.10
2022-10-05T15:45:35.476Z,7.33
2022-10-05T15:48:14.992Z,9.40
2022-10-05T15:51:15.256Z,9.77
2022-10-05T15:54:28.759Z,8.17
2022-10-05T15:57:15.377Z,9.77
2022-10-05T15:59:57.608Z,9.93
2022-10-05T16:02:45.400Z,9.20
2022-10-05T16:05:20.007Z,11.83
2022-10-05T16:08:11.345Z,10.23
2022-10-05T16:10:44.072Z,11.70
2022-10-05T16:13:29.836Z,13.57
2022-10-05T16:16:24.438Z,13.00
2022-10-05T16:19:14.767Z,13.10
2022-10-05T16:21:54.135Z,12.93
2022-10-05T16:25:01.118Z,12.90
2022-10-05T16:27:55.589Z,13.53
2022-10-05T16:30:24.416Z,12.47
2022-10-05T16:33:17.081Z,13.70
2022-10-05T16:36:05.536Z,12.47
2022-10-05T16:38:59.678Z,11.70
2022-10-05T16:41:48.939Z,13.50
2022-10-05T16:44:49.112Z,13.40
2022-10-05T16:47:40.424Z,13.17
2022-10-05T16:50:30.434Z,14.20
2022-10-05T16:53:09.939Z,13.63
2022-10-05T16:55:48.290Z,12.97
2022-10-05T16:58:32.174Z,12.80
2022-10-05T17:01:39.750Z,12.90
2022-10-05T17:05:03.667Z,13.03
2022-10-05T17:07:47.887Z,14.30
2022-10-05T17:10:45.444Z,14.50
2022-10-05T17:13:30.374Z,13.93
2022-10-05T17:16:22.274Z,13.50
2022-10-05T17:19:37.894Z,12.20
2022-10-05T17:22:17.137Z,11.73
2022-10-05T17:25:06.519Z,10.73
2022-10-05T17:28:18.535Z,11.73
2022-10-05T17:31:07.626Z,10.70
2022-10-05T17:34:03.541Z,11.17
2022-10-05T17:36:51.213Z,11.43
2022-10-05T17:39:43.832Z,11.10
2022-10-05T17:42:29.228Z,11.63
2022-10-05T17:45:31.315Z,11.43
2022-10-05T17:48:05.126Z,11.17
2022-10-05T17:51:05.935Z,12.80
2022-10-05T17:53:56.325Z,11.67
2022-10-05T17:56:23.902Z,10.83
2022-10-05T17:58:54.438Z,10.40
2022-10-05T18:01:33.890Z,11.53
2022-10-05T18:04:13.139Z,11.40
2022-10-05T18:07:01.146Z,11.70
2022-10-05T18:09:33.015Z,11.50
2022-10-05T18:12:18.335Z,11.57
2022-10-05T18:15:07.082Z,11.67
2022-10-05T18:17:51.376Z,11.03
2022-10-05T18:20:24.291Z,11.80
2022-10-05T18:22:54.604Z,10.47
2022-10-05T18:25:46.929Z,10.10
2022-10-05T18:29:13.929Z,10.97
2022-10-05T18:32:02.787Z,10.30
2022-10-05T18:35:11.297Z,10.83
2022-10-05T18:37:53.276Z,9.97
2022-10-05T18:40:57.033Z,9.37
2022-10-05T18:44:06.390Z,9.03
2022-10-05T18:46:57.697Z,9.00
2022-10-05T18:50:18.843Z,9.60
2022-10-05T18:53:18.133Z,9.67
2022-10-05T18:55:55.508Z,10.17
2022-10-05T18:58:37.103Z,12.30
2022-10-05T19:01:47.444Z,11.30
2022-10-05T19:04:50.601Z,11.77
2022-10-05T19:07:45.095Z,11.90
2022-10-05T19:10:57.657Z,11.70
2022-10-05T19:13:58.186Z,11.73
2022-10-05T19:17:14.888Z,11.53
2022-10-05T19:20:08.864Z,12.23
2022-10-05T19:23:19.562Z,12.07
2022-10-05T19:26:02.526Z,12.07
2022-10-05T19:28:40.561Z,12.40
2022-10-05T19:31:40.762Z,12.27
2022-10-05T19:34:50.170Z,11.07
2022-10-05T19:37:24.718Z,11.13
2022-10-05T19:40:04.621Z,11.40
2022-10-05T19:43:04.680Z,13.27
2022-10-05T19:45:38.672Z,12.23
2022-10-05T19:48:19.202Z,12.00
2022-10-05T19:50:55.419Z,13.10
2022-10-05T19:53:28.871Z,12.00
2022-10-05T19:55:56.087Z,11.10
2022-10-05T19:58:29.351Z,11.40
2022-10-05T20:01:04.290Z,10.30
2022-10-05T20:03:37.882Z,11.53
2022-10-05T20:06:08.043Z,11.37
2022-10-05T20:08:44.807Z,10.60
2022-10-05T20:11:14.273Z,11.23
2022-10-05T20:14:10.231Z,10.40
2022-10-05T20:16:55.411Z,11.30
2022-10-05T20:19:54.289Z,11.33
2022-10-05T20:22:34.856Z,10.10
2022-10-05T20:25:18.294Z,11.10
2022-10-05T20:27:48.129Z,10.40
2022-10-05T20:30:24.814Z,11.27
2022-10-05T20:33:04.503Z,10.80
2022-10-05T20:35:31.351Z,10.10
2022-10-05T20:38:00.165Z,9.83
2022-10-05T20:40:29.791Z,10.13
2022-10-05T20:42:58.282Z,10.50
2022-10-05T20:45:25.574Z,9.77
2022-10-05T20:47:52.511Z,10.50
2022-10-05T20:50:22.820Z,11.20
2022-10-05T20:52:49.983Z,10.27
2022-10-05T20:55:17.020Z,10.10
2022-10-05T20:57:46.140Z,10.50
2022-10-05T21:00:13.919Z,10.57
2022-10-05T21:02:40.943Z,10.70
2022-10-05T21:05:08.600Z,10.57
2022-10-05T21:07:35.592Z,10.57
2022-10-05T21:10:03.814Z,9.63
2022-10-05T21:12:32.670Z,10.57
2022-10-05T21:14:59.795Z,11.43
2022-10-05T21:17:26.645Z,10.50
2022-10-05T21:19:53.658Z,10.60
2022-10-05T21:22:20.634Z,10.33
2022-10-05T21:24:48.408Z,10.37
2022-10-05T21:27:15.457Z,10.60
2022-10-05T21:29:44.081Z,9.63
2022-10-05T21:32:11.903Z,10.10
2022-10-05T21:34:40.394Z,9.23
2022-10-05T21:37:08.504Z,9.63
2022-10-05T21:39:36.478Z,10.10
2022-10-05T21:42:04.047Z,9.50
2022-10-05T21:44:30.918Z,9.70
2022-10-05T21:46:57.863Z,9.70
2022-10-05T21:49:25.882Z,10.40
2022-10-05T21:51:54.133Z,9.00
2022-10-05T21:54:22.814Z,9.60
2022-10-05T21:56:53.776Z,9.43
2022-10-05T21:59:24.419Z,9.40
2022-10-05T22:01:52.009Z,9.00
2022-10-05T22:04:19.033Z,9.43
2022-10-05T22:06:45.926Z,9.33
2022-10-05T22:09:12.882Z,9.33
2022-10-05T22:11:39.779Z,8.90
2022-10-05T22:14:06.724Z,8.80
2022-10-05T22:16:38.158Z,9.40
2022-10-05T22:19:12.499Z,8.90
2022-10-05T22:21:41.678Z,8.40
2022-10-05T22:24:10.578Z,8.20
2022-10-05T22:26:38.038Z,9.27
2022-10-05T22:29:05.284Z,9.67
2022-10-05T22:31:32.390Z,7.77
2022-10-05T22:33:59.440Z,9.20
2022-10-05T22:36:26.929Z,8.07
2022-10-05T22:38:53.864Z,7.80
2022-10-05T22:41:20.932Z,8.83
2022-10-05T22:43:50.107Z,8.33
2022-10-05T22:46:17.851Z,8.77
2022-10-05T22:48:44.859Z,8.57
2022-10-05T22:51:12.051Z,8.70
2022-10-05T22:53:38.954Z,7.57
2022-10-05T22:56:13.160Z,8.10
2022-10-05T22:58:41.899Z,7.50
2022-10-05T23:01:14.758Z,8.10
2022-10-05T23:03:41.946Z,7.83
2022-10-05T23:06:16.190Z,7.60
2022-10-05T23:08:43.919Z,7.03
2022-10-05T23:11:22.543Z,8.90
2022-10-05T23:13:52.237Z,7.80
2022-10-05T23:16:21.902Z,8.03
2022-10-05T23:18:51.686Z,8.27
2022-10-05T23:21:22.795Z,7.90
2022-10-05T23:23:52.913Z,7.97
2022-10-05T23:26:23.543Z,8.20
2022-10-05T23:28:50.911Z,8.20
2022-10-05T23:31:24.912Z,7.77
2022-10-05T23:33:53.162Z,7.40
2022-10-05T23:36:26.277Z,7.70
2022-10-05T23:38:53.995Z,7.30
2022-10-05T23:41:21.583Z,7.50
2022-10-05T23:43:48.722Z,7.67
2022-10-05T23:46:16.078Z,8.07
2022-10-05T23:48:42.976Z,7.97
2022-10-05T23:51:12.398Z,7.27
2022-10-05T23:53:39.272Z,7.43
2022-10-05T23:56:06.567Z,7.73
2022-10-05T23:58:33.556Z,7.60
